Terminal Aerodrome Forecast
Issued by NWS

Home | Current Version | Previous Version | Text Only | Print | Product List | Glossary On
Versions: 1 2 3 4 5 6 7 8 9 10 11 12 13 14 15 16 17 18 19 20 21 22
633
FTUS43 KPAH 230224 AAA
TAFCGI
TAF AMD
KCGI 230224Z 2302/2324 34009KT 5SM -SHRA BR OVC008
      TEMPO 2302/2304 1 1/2SM +SHRA BR SCT008 OVC013
     FM230900 31008KT P6SM BKN015 OVC035
     FM231300 30008KT P6SM SCT040 OVC080
     FM231600 27008KT P6SM SCT250=

USA.gov is the U.S. government's official web portal to all federal, state and local government web resources and services.